sensor_id;sensor_type;location;lat;lon;timestamp;P1;durP1;ratioP1;P2;durP2;ratioP2
2434;SDS011;1228;51.022;6.764;2023-11-19T00:00:09;3.70;;;3.50;;
2434;SDS011;1228;51.022;6.764;2023-11-19T00:02:38;3.80;;;3.50;;
2434;SDS011;1228;51.022;6.764;2023-11-19T00:05:05;4.67;;;3.63;;
2434;SDS011;1228;51.022;6.764;2023-11-19T00:07:34;3.20;;;3.03;;
2434;SDS011;1228;51.022;6.764;2023-11-19T00:10:01;3.90;;;3.60;;
2434;SDS011;1228;51.022;6.764;2023-11-19T00:12:31;3.43;;;3.20;;
2434;SDS011;1228;51.022;6.764;2023-11-19T00:14:57;4.00;;;3.70;;
2434;SDS011;1228;51.022;6.764;2023-11-19T00:17:23;4.17;;;3.80;;
2434;SDS011;1228;51.022;6.764;2023-11-19T00:19:49;4.00;;;3.80;;
2434;SDS011;1228;51.022;6.764;2023-11-19T00:22:16;6.00;;;3.83;;
2434;SDS011;1228;51.022;6.764;2023-11-19T00:24:42;3.60;;;3.40;;
2434;SDS011;1228;51.022;6.764;2023-11-19T00:27:07;3.50;;;3.30;;
2434;SDS011;1228;51.022;6.764;2023-11-19T00:29:33;3.50;;;3.30;;
2434;SDS011;1228;51.022;6.764;2023-11-19T00:31:58;3.30;;;3.10;;
2434;SDS011;1228;51.022;6.764;2023-11-19T00:34:24;4.03;;;3.73;;
2434;SDS011;1228;51.022;6.764;2023-11-19T00:36:50;3.03;;;2.90;;
2434;SDS011;1228;51.022;6.764;2023-11-19T00:39:15;3.67;;;3.43;;
2434;SDS011;1228;51.022;6.764;2023-11-19T00:41:41;3.87;;;3.40;;
2434;SDS011;1228;51.022;6.764;2023-11-19T00:44:06;3.67;;;3.37;;
2434;SDS011;1228;51.022;6.764;2023-11-19T00:46:32;3.50;;;3.30;;
2434;SDS011;1228;51.022;6.764;2023-11-19T00:48:58;3.67;;;3.20;;
2434;SDS011;1228;51.022;6.764;2023-11-19T00:51:25;4.77;;;3.23;;
2434;SDS011;1228;51.022;6.764;2023-11-19T00:53:51;3.60;;;3.30;;
2434;SDS011;1228;51.022;6.764;2023-11-19T00:56:18;3.40;;;3.20;;
2434;SDS011;1228;51.022;6.764;2023-11-19T00:58:44;4.13;;;3.20;;
2434;SDS011;1228;51.022;6.764;2023-11-19T01:01:13;3.10;;;2.90;;
2434;SDS011;1228;51.022;6.764;2023-11-19T01:03:39;3.40;;;3.00;;
2434;SDS011;1228;51.022;6.764;2023-11-19T01:06:04;3.10;;;3.00;;
2434;SDS011;1228;51.022;6.764;2023-11-19T01:08:30;3.67;;;3.37;;
2434;SDS011;1228;51.022;6.764;2023-11-19T01:10:56;4.27;;;3.23;;
2434;SDS011;1228;51.022;6.764;2023-11-19T01:13:21;3.20;;;3.00;;
2434;SDS011;1228;51.022;6.764;2023-11-19T01:15:47;3.23;;;3.03;;
2434;SDS011;1228;51.022;6.764;2023-11-19T01:18:13;3.60;;;3.30;;
2434;SDS011;1228;51.022;6.764;2023-11-19T01:20:38;4.10;;;3.07;;
2434;SDS011;1228;51.022;6.764;2023-11-19T01:23:04;3.30;;;3.00;;
2434;SDS011;1228;51.022;6.764;2023-11-19T01:25:30;6.13;;;3.03;;
2434;SDS011;1228;51.022;6.764;2023-11-19T01:27:55;3.33;;;3.13;;
2434;SDS011;1228;51.022;6.764;2023-11-19T01:30:24;3.40;;;3.10;;
2434;SDS011;1228;51.022;6.764;2023-11-19T01:32:50;3.57;;;3.13;;
2434;SDS011;1228;51.022;6.764;2023-11-19T01:35:15;3.43;;;3.23;;
2434;SDS011;1228;51.022;6.764;2023-11-19T01:37:41;3.77;;;3.47;;
2434;SDS011;1228;51.022;6.764;2023-11-19T01:40:06;3.83;;;3.53;;
2434;SDS011;1228;51.022;6.764;2023-11-19T01:42:38;4.43;;;4.07;;
2434;SDS011;1228;51.022;6.764;2023-11-19T01:45:06;5.07;;;3.93;;
2434;SDS011;1228;51.022;6.764;2023-11-19T01:47:33;4.30;;;3.93;;
2434;SDS011;1228;51.022;6.764;2023-11-19T01:50:00;6.17;;;4.40;;
2434;SDS011;1228;51.022;6.764;2023-11-19T01:52:31;5.77;;;4.23;;
2434;SDS011;1228;51.022;6.764;2023-11-19T01:54:59;7.13;;;4.20;;
2434;SDS011;1228;51.022;6.764;2023-11-19T01:57:25;4.40;;;4.00;;
2434;SDS011;1228;51.022;6.764;2023-11-19T01:59:51;4.93;;;4.43;;
2434;SDS011;1228;51.022;6.764;2023-11-19T02:02:17;4.30;;;3.90;;
2434;SDS011;1228;51.022;6.764;2023-11-19T02:04:47;4.90;;;4.10;;
2434;SDS011;1228;51.022;6.764;2023-11-19T02:07:14;7.00;;;4.63;;
2434;SDS011;1228;51.022;6.764;2023-11-19T02:09:42;4.30;;;4.00;;
2434;SDS011;1228;51.022;6.764;2023-11-19T02:12:09;7.13;;;4.13;;
2434;SDS011;1228;51.022;6.764;2023-11-19T02:14:37;6.80;;;4.20;;
2434;SDS011;1228;51.022;6.764;2023-11-19T02:17:02;11.97;;;4.73;;
2434;SDS011;1228;51.022;6.764;2023-11-19T02:19:28;6.07;;;4.10;;
2434;SDS011;1228;51.022;6.764;2023-11-19T02:21:54;9.07;;;4.40;;
2434;SDS011;1228;51.022;6.764;2023-11-19T02:24:21;8.47;;;4.53;;
2434;SDS011;1228;51.022;6.764;2023-11-19T02:27:05;7.90;;;4.30;;
2434;SDS011;1228;51.022;6.764;2023-11-19T02:29:44;11.40;;;4.60;;
2434;SDS011;1228;51.022;6.764;2023-11-19T02:32:10;6.37;;;4.20;;
2434;SDS011;1228;51.022;6.764;2023-11-19T02:34:38;9.20;;;4.77;;
2434;SDS011;1228;51.022;6.764;2023-11-19T02:37:04;8.33;;;5.00;;
2434;SDS011;1228;51.022;6.764;2023-11-19T02:39:29;7.27;;;5.20;;
2434;SDS011;1228;51.022;6.764;2023-11-19T02:41:55;10.77;;;4.70;;
2434;SDS011;1228;51.022;6.764;2023-11-19T02:44:21;11.67;;;4.77;;
2434;SDS011;1228;51.022;6.764;2023-11-19T02:46:46;9.23;;;5.07;;
2434;SDS011;1228;51.022;6.764;2023-11-19T02:49:13;7.60;;;5.03;;
2434;SDS011;1228;51.022;6.764;2023-11-19T02:51:40;9.40;;;5.50;;
2434;SDS011;1228;51.022;6.764;2023-11-19T02:54:05;8.87;;;4.77;;
2434;SDS011;1228;51.022;6.764;2023-11-19T02:56:31;9.67;;;5.43;;
2434;SDS011;1228;51.022;6.764;2023-11-19T02:59:00;14.33;;;5.73;;
2434;SDS011;1228;51.022;6.764;2023-11-19T03:01:33;11.23;;;5.23;;
2434;SDS011;1228;51.022;6.764;2023-11-19T03:04:00;11.30;;;5.07;;
2434;SDS011;1228;51.022;6.764;2023-11-19T03:06:27;11.50;;;4.90;;
2434;SDS011;1228;51.022;6.764;2023-11-19T03:08:53;9.80;;;4.67;;
2434;SDS011;1228;51.022;6.764;2023-11-19T03:11:19;7.73;;;4.20;;
2434;SDS011;1228;51.022;6.764;2023-11-19T03:13:45;15.90;;;4.80;;
2434;SDS011;1228;51.022;6.764;2023-11-19T03:16:11;8.53;;;4.20;;
2434;SDS011;1228;51.022;6.764;2023-11-19T03:18:37;9.10;;;4.83;;
2434;SDS011;1228;51.022;6.764;2023-11-19T03:21:05;7.47;;;4.37;;
2434;SDS011;1228;51.022;6.764;2023-11-19T03:23:32;13.67;;;4.83;;
2434;SDS011;1228;51.022;6.764;2023-11-19T03:25:57;10.67;;;4.20;;
2434;SDS011;1228;51.022;6.764;2023-11-19T03:28:23;11.87;;;4.23;;
2434;SDS011;1228;51.022;6.764;2023-11-19T03:30:48;8.43;;;4.80;;
2434;SDS011;1228;51.022;6.764;2023-11-19T03:33:14;9.77;;;4.50;;
2434;SDS011;1228;51.022;6.764;2023-11-19T03:35:39;7.20;;;4.10;;
2434;SDS011;1228;51.022;6.764;2023-11-19T03:38:06;10.93;;;4.77;;
2434;SDS011;1228;51.022;6.764;2023-11-19T03:40:31;6.77;;;4.70;;
2434;SDS011;1228;51.022;6.764;2023-11-19T03:42:57;12.27;;;5.00;;
2434;SDS011;1228;51.022;6.764;2023-11-19T03:45:23;16.17;;;4.73;;
2434;SDS011;1228;51.022;6.764;2023-11-19T03:47:50;6.67;;;3.83;;
2434;SDS011;1228;51.022;6.764;2023-11-19T03:50:15;8.93;;;5.20;;
2434;SDS011;1228;51.022;6.764;2023-11-19T03:52:41;13.53;;;4.50;;
2434;SDS011;1228;51.022;6.764;2023-11-19T03:55:07;10.37;;;4.50;;
2434;SDS011;1228;51.022;6.764;2023-11-19T03:57:34;7.77;;;4.70;;
2434;SDS011;1228;51.022;6.764;2023-11-19T04:00:00;15.47;;;5.00;;
2434;SDS011;1228;51.022;6.764;2023-11-19T04:02:31;9.07;;;4.47;;
2434;SDS011;1228;51.022;6.764;2023-11-19T04:04:56;11.50;;;4.70;;
2434;SDS011;1228;51.022;6.764;2023-11-19T04:07:22;9.87;;;4.40;;
2434;SDS011;1228;51.022;6.764;2023-11-19T04:09:47;11.13;;;4.70;;
2434;SDS011;1228;51.022;6.764;2023-11-19T04:12:13;10.53;;;4.53;;
2434;SDS011;1228;51.022;6.764;2023-11-19T04:14:38;11.40;;;4.70;;
2434;SDS011;1228;51.022;6.764;2023-11-19T04:17:05;10.10;;;4.20;;
2434;SDS011;1228;51.022;6.764;2023-11-19T04:19:31;10.73;;;4.90;;
2434;SDS011;1228;51.022;6.764;2023-11-19T04:21:57;7.60;;;4.77;;
2434;SDS011;1228;51.022;6.764;2023-11-19T04:24:23;10.97;;;4.77;;
2434;SDS011;1228;51.022;6.764;2023-11-19T04:26:49;13.83;;;4.80;;
2434;SDS011;1228;51.022;6.764;2023-11-19T04:29:15;11.30;;;5.20;;
2434;SDS011;1228;51.022;6.764;2023-11-19T04:31:44;16.23;;;6.00;;
2434;SDS011;1228;51.022;6.764;2023-11-19T04:34:11;10.23;;;4.77;;
2434;SDS011;1228;51.022;6.764;2023-11-19T04:36:37;15.90;;;5.37;;
2434;SDS011;1228;51.022;6.764;2023-11-19T04:39:04;13.20;;;5.07;;
2434;SDS011;1228;51.022;6.764;2023-11-19T04:41:46;16.60;;;5.30;;
2434;SDS011;1228;51.022;6.764;2023-11-19T04:44:13;15.80;;;5.00;;
2434;SDS011;1228;51.022;6.764;2023-11-19T04:46:40;19.10;;;5.63;;
2434;SDS011;1228;51.022;6.764;2023-11-19T04:49:08;19.10;;;5.33;;
2434;SDS011;1228;51.022;6.764;2023-11-19T04:51:41;11.50;;;4.83;;
2434;SDS011;1228;51.022;6.764;2023-11-19T04:54:08;9.13;;;4.33;;
2434;SDS011;1228;51.022;6.764;2023-11-19T04:56:35;12.93;;;5.10;;
2434;SDS011;1228;51.022;6.764;2023-11-19T04:59:02;19.00;;;4.60;;
2434;SDS011;1228;51.022;6.764;2023-11-19T05:01:28;14.07;;;4.47;;
2434;SDS011;1228;51.022;6.764;2023-11-19T05:03:56;11.67;;;5.20;;
2434;SDS011;1228;51.022;6.764;2023-11-19T05:06:28;5.90;;;4.00;;
2434;SDS011;1228;51.022;6.764;2023-11-19T05:08:58;11.63;;;4.70;;
2434;SDS011;1228;51.022;6.764;2023-11-19T05:11:26;13.30;;;5.13;;
2434;SDS011;1228;51.022;6.764;2023-11-19T05:13:53;14.27;;;5.23;;
2434;SDS011;1228;51.022;6.764;2023-11-19T05:16:19;13.93;;;4.70;;
2434;SDS011;1228;51.022;6.764;2023-11-19T05:18:45;12.10;;;4.90;;
2434;SDS011;1228;51.022;6.764;2023-11-19T05:21:11;17.50;;;5.37;;
2434;SDS011;1228;51.022;6.764;2023-11-19T05:23:37;9.70;;;4.60;;
2434;SDS011;1228;51.022;6.764;2023-11-19T05:26:04;14.13;;;7.07;;
2434;SDS011;1228;51.022;6.764;2023-11-19T05:28:30;16.67;;;4.60;;
2434;SDS011;1228;51.022;6.764;2023-11-19T05:30:55;20.23;;;5.87;;
2434;SDS011;1228;51.022;6.764;2023-11-19T05:33:21;13.90;;;4.83;;
2434;SDS011;1228;51.022;6.764;2023-11-19T05:35:46;12.03;;;4.93;;
2434;SDS011;1228;51.022;6.764;2023-11-19T05:38:12;13.10;;;4.47;;
2434;SDS011;1228;51.022;6.764;2023-11-19T05:40:38;9.83;;;4.07;;
2434;SDS011;1228;51.022;6.764;2023-11-19T05:43:04;9.50;;;4.53;;
2434;SDS011;1228;51.022;6.764;2023-11-19T05:45:30;12.10;;;5.00;;
2434;SDS011;1228;51.022;6.764;2023-11-19T05:47:57;12.57;;;5.07;;
2434;SDS011;1228;51.022;6.764;2023-11-19T05:50:22;12.00;;;4.87;;
2434;SDS011;1228;51.022;6.764;2023-11-19T05:52:48;13.57;;;5.37;;
2434;SDS011;1228;51.022;6.764;2023-11-19T05:55:14;10.80;;;4.53;;
2434;SDS011;1228;51.022;6.764;2023-11-19T05:57:40;15.73;;;5.80;;
2434;SDS011;1228;51.022;6.764;2023-11-19T06:00:06;24.10;;;5.30;;
2434;SDS011;1228;51.022;6.764;2023-11-19T06:02:34;10.30;;;4.43;;
2434;SDS011;1228;51.022;6.764;2023-11-19T06:05:00;13.23;;;5.00;;
2434;SDS011;1228;51.022;6.764;2023-11-19T06:07:26;16.23;;;5.07;;
2434;SDS011;1228;51.022;6.764;2023-11-19T06:09:52;14.47;;;4.97;;
2434;SDS011;1228;51.022;6.764;2023-11-19T06:12:18;16.63;;;5.37;;
2434;SDS011;1228;51.022;6.764;2023-11-19T06:14:44;14.87;;;4.60;;
2434;SDS011;1228;51.022;6.764;2023-11-19T06:17:09;17.27;;;4.97;;
2434;SDS011;1228;51.022;6.764;2023-11-19T06:19:37;17.33;;;4.87;;
2434;SDS011;1228;51.022;6.764;2023-11-19T06:22:03;12.90;;;4.63;;
2434;SDS011;1228;51.022;6.764;2023-11-19T06:24:29;17.23;;;6.10;;
2434;SDS011;1228;51.022;6.764;2023-11-19T06:26:54;16.23;;;6.33;;
2434;SDS011;1228;51.022;6.764;2023-11-19T06:29:20;15.13;;;5.57;;
2434;SDS011;1228;51.022;6.764;2023-11-19T06:31:45;15.80;;;5.37;;
2434;SDS011;1228;51.022;6.764;2023-11-19T06:34:14;12.43;;;4.63;;
2434;SDS011;1228;51.022;6.764;2023-11-19T06:36:40;18.30;;;6.07;;
2434;SDS011;1228;51.022;6.764;2023-11-19T06:39:05;21.97;;;6.10;;
2434;SDS011;1228;51.022;6.764;2023-11-19T06:41:31;17.00;;;5.10;;
2434;SDS011;1228;51.022;6.764;2023-11-19T06:43:57;16.50;;;5.13;;
2434;SDS011;1228;51.022;6.764;2023-11-19T06:46:22;11.90;;;6.10;;
2434;SDS011;1228;51.022;6.764;2023-11-19T06:48:48;17.97;;;5.17;;
2434;SDS011;1228;51.022;6.764;2023-11-19T06:51:13;15.90;;;5.00;;
2434;SDS011;1228;51.022;6.764;2023-11-19T06:53:39;16.00;;;5.10;;
2434;SDS011;1228;51.022;6.764;2023-11-19T06:56:06;22.93;;;5.73;;
2434;SDS011;1228;51.022;6.764;2023-11-19T06:58:46;19.97;;;6.03;;
2434;SDS011;1228;51.022;6.764;2023-11-19T07:01:12;17.27;;;6.27;;
2434;SDS011;1228;51.022;6.764;2023-11-19T07:03:38;12.57;;;4.57;;
2434;SDS011;1228;51.022;6.764;2023-11-19T07:06:04;16.67;;;5.60;;
2434;SDS011;1228;51.022;6.764;2023-11-19T07:08:30;14.83;;;6.10;;
2434;SDS011;1228;51.022;6.764;2023-11-19T07:10:56;17.53;;;5.13;;
2434;SDS011;1228;51.022;6.764;2023-11-19T07:13:22;15.77;;;4.97;;
2434;SDS011;1228;51.022;6.764;2023-11-19T07:15:47;16.53;;;6.07;;
2434;SDS011;1228;51.022;6.764;2023-11-19T07:18:13;19.70;;;5.20;;
2434;SDS011;1228;51.022;6.764;2023-11-19T07:20:39;17.20;;;5.97;;
2434;SDS011;1228;51.022;6.764;2023-11-19T07:23:05;20.10;;;5.17;;
2434;SDS011;1228;51.022;6.764;2023-11-19T07:25:31;20.47;;;6.07;;
2434;SDS011;1228;51.022;6.764;2023-11-19T07:27:56;16.53;;;5.53;;
2434;SDS011;1228;51.022;6.764;2023-11-19T07:30:22;20.53;;;5.47;;
2434;SDS011;1228;51.022;6.764;2023-11-19T07:32:48;16.80;;;5.00;;
2434;SDS011;1228;51.022;6.764;2023-11-19T07:35:13;14.20;;;4.67;;
2434;SDS011;1228;51.022;6.764;2023-11-19T07:37:40;12.20;;;5.10;;
2434;SDS011;1228;51.022;6.764;2023-11-19T07:40:07;19.30;;;5.40;;
2434;SDS011;1228;51.022;6.764;2023-11-19T07:42:33;20.13;;;6.60;;
2434;SDS011;1228;51.022;6.764;2023-11-19T07:44:59;16.00;;;6.27;;
2434;SDS011;1228;51.022;6.764;2023-11-19T07:47:24;16.37;;;5.23;;
2434;SDS011;1228;51.022;6.764;2023-11-19T07:49:50;20.33;;;5.60;;
2434;SDS011;1228;51.022;6.764;2023-11-19T07:52:16;16.23;;;5.23;;
2434;SDS011;1228;51.022;6.764;2023-11-19T07:54:42;21.67;;;6.47;;
2434;SDS011;1228;51.022;6.764;2023-11-19T07:57:07;15.63;;;4.73;;
2434;SDS011;1228;51.022;6.764;2023-11-19T07:59:33;14.83;;;5.77;;
2434;SDS011;1228;51.022;6.764;2023-11-19T08:01:59;19.30;;;5.40;;
2434;SDS011;1228;51.022;6.764;2023-11-19T08:04:24;18.93;;;5.33;;
2434;SDS011;1228;51.022;6.764;2023-11-19T08:06:50;20.33;;;5.63;;
2434;SDS011;1228;51.022;6.764;2023-11-19T08:09:16;20.43;;;5.57;;
2434;SDS011;1228;51.022;6.764;2023-11-19T08:11:42;20.30;;;6.30;;
2434;SDS011;1228;51.022;6.764;2023-11-19T08:14:08;14.93;;;5.43;;
2434;SDS011;1228;51.022;6.764;2023-11-19T08:16:34;20.00;;;5.60;;
2434;SDS011;1228;51.022;6.764;2023-11-19T08:19:00;15.93;;;5.47;;
2434;SDS011;1228;51.022;6.764;2023-11-19T08:21:25;19.73;;;6.23;;
2434;SDS011;1228;51.022;6.764;2023-11-19T08:23:52;11.53;;;5.13;;
2434;SDS011;1228;51.022;6.764;2023-11-19T08:26:17;12.73;;;4.80;;
2434;SDS011;1228;51.022;6.764;2023-11-19T08:28:43;12.93;;;4.43;;
2434;SDS011;1228;51.022;6.764;2023-11-19T08:31:08;16.33;;;4.80;;
2434;SDS011;1228;51.022;6.764;2023-11-19T08:33:34;17.50;;;5.27;;
2434;SDS011;1228;51.022;6.764;2023-11-19T08:36:00;18.60;;;5.67;;
2434;SDS011;1228;51.022;6.764;2023-11-19T08:38:26;19.80;;;4.87;;
2434;SDS011;1228;51.022;6.764;2023-11-19T08:40:51;22.77;;;6.00;;
2434;SDS011;1228;51.022;6.764;2023-11-19T08:43:17;21.33;;;5.33;;
2434;SDS011;1228;51.022;6.764;2023-11-19T08:45:42;15.60;;;5.30;;
2434;SDS011;1228;51.022;6.764;2023-11-19T08:48:08;20.17;;;5.73;;
2434;SDS011;1228;51.022;6.764;2023-11-19T08:50:34;17.90;;;5.43;;
2434;SDS011;1228;51.022;6.764;2023-11-19T08:53:00;18.97;;;5.03;;
2434;SDS011;1228;51.022;6.764;2023-11-19T08:55:25;20.63;;;5.33;;
2434;SDS011;1228;51.022;6.764;2023-11-19T08:57:51;18.53;;;5.70;;
2434;SDS011;1228;51.022;6.764;2023-11-19T09:00:17;12.80;;;4.83;;
2434;SDS011;1228;51.022;6.764;2023-11-19T09:02:43;16.17;;;5.20;;
2434;SDS011;1228;51.022;6.764;2023-11-19T09:05:08;17.47;;;5.57;;
2434;SDS011;1228;51.022;6.764;2023-11-19T09:07:34;14.53;;;5.23;;
2434;SDS011;1228;51.022;6.764;2023-11-19T09:09:59;13.87;;;5.27;;
2434;SDS011;1228;51.022;6.764;2023-11-19T09:12:25;15.10;;;6.50;;
2434;SDS011;1228;51.022;6.764;2023-11-19T09:14:50;15.30;;;4.87;;
2434;SDS011;1228;51.022;6.764;2023-11-19T09:17:16;18.87;;;5.13;;
2434;SDS011;1228;51.022;6.764;2023-11-19T09:19:43;14.33;;;5.03;;
2434;SDS011;1228;51.022;6.764;2023-11-19T09:22:08;14.27;;;5.20;;
2434;SDS011;1228;51.022;6.764;2023-11-19T09:24:34;22.93;;;5.57;;
2434;SDS011;1228;51.022;6.764;2023-11-19T09:26:59;14.80;;;5.07;;
2434;SDS011;1228;51.022;6.764;2023-11-19T09:29:25;20.30;;;6.17;;
2434;SDS011;1228;51.022;6.764;2023-11-19T09:31:50;19.57;;;5.47;;
2434;SDS011;1228;51.022;6.764;2023-11-19T09:34:16;15.23;;;5.20;;
2434;SDS011;1228;51.022;6.764;2023-11-19T09:36:42;14.73;;;4.60;;
2434;SDS011;1228;51.022;6.764;2023-11-19T09:39:09;17.77;;;4.90;;
2434;SDS011;1228;51.022;6.764;2023-11-19T09:41:40;24.13;;;5.40;;
2434;SDS011;1228;51.022;6.764;2023-11-19T09:44:07;18.67;;;4.93;;
2434;SDS011;1228;51.022;6.764;2023-11-19T09:46:33;18.00;;;4.93;;
2434;SDS011;1228;51.022;6.764;2023-11-19T09:48:59;17.07;;;4.90;;
2434;SDS011;1228;51.022;6.764;2023-11-19T09:51:27;15.03;;;4.77;;
2434;SDS011;1228;51.022;6.764;2023-11-19T09:53:53;15.17;;;5.43;;
2434;SDS011;1228;51.022;6.764;2023-11-19T09:56:18;17.73;;;4.83;;
2434;SDS011;1228;51.022;6.764;2023-11-19T09:58:44;15.03;;;5.50;;
2434;SDS011;1228;51.022;6.764;2023-11-19T10:01:11;17.87;;;5.80;;
2434;SDS011;1228;51.022;6.764;2023-11-19T10:03:37;19.87;;;4.97;;
2434;SDS011;1228;51.022;6.764;2023-11-19T10:06:08;12.07;;;4.43;;
2434;SDS011;1228;51.022;6.764;2023-11-19T10:08:34;11.20;;;4.40;;
2434;SDS011;1228;51.022;6.764;2023-11-19T10:11:04;19.23;;;6.03;;
2434;SDS011;1228;51.022;6.764;2023-11-19T10:13:35;13.53;;;5.57;;
2434;SDS011;1228;51.022;6.764;2023-11-19T10:16:06;21.43;;;5.63;;
2434;SDS011;1228;51.022;6.764;2023-11-19T10:18:33;11.93;;;4.87;;
2434;SDS011;1228;51.022;6.764;2023-11-19T10:21:03;13.27;;;4.20;;
2434;SDS011;1228;51.022;6.764;2023-11-19T10:23:47;15.00;;;6.20;;
2434;SDS011;1228;51.022;6.764;2023-11-19T10:26:22;16.20;;;5.87;;
2434;SDS011;1228;51.022;6.764;2023-11-19T10:28:48;20.53;;;6.07;;
2434;SDS011;1228;51.022;6.764;2023-11-19T10:31:14;20.17;;;5.17;;
2434;SDS011;1228;51.022;6.764;2023-11-19T10:33:41;16.87;;;5.10;;
2434;SDS011;1228;51.022;6.764;2023-11-19T10:36:10;15.00;;;4.80;;
2434;SDS011;1228;51.022;6.764;2023-11-19T10:38:37;14.20;;;5.17;;
2434;SDS011;1228;51.022;6.764;2023-11-19T10:41:03;17.27;;;5.60;;
2434;SDS011;1228;51.022;6.764;2023-11-19T10:43:30;13.70;;;7.40;;
2434;SDS011;1228;51.022;6.764;2023-11-19T10:46:08;17.10;;;6.73;;
2434;SDS011;1228;51.022;6.764;2023-11-19T10:48:35;14.57;;;4.90;;
2434;SDS011;1228;51.022;6.764;2023-11-19T10:51:01;16.83;;;4.43;;
2434;SDS011;1228;51.022;6.764;2023-11-19T10:53:33;19.60;;;5.43;;
2434;SDS011;1228;51.022;6.764;2023-11-19T10:56:01;16.43;;;5.43;;
2434;SDS011;1228;51.022;6.764;2023-11-19T10:58:29;19.07;;;6.00;;
2434;SDS011;1228;51.022;6.764;2023-11-19T11:00:58;16.17;;;4.33;;
2434;SDS011;1228;51.022;6.764;2023-11-19T11:03:37;16.87;;;5.33;;
2434;SDS011;1228;51.022;6.764;2023-11-19T11:06:05;15.57;;;4.97;;
2434;SDS011;1228;51.022;6.764;2023-11-19T11:08:31;17.27;;;5.63;;
2434;SDS011;1228;51.022;6.764;2023-11-19T11:11:01;15.63;;;5.10;;
2434;SDS011;1228;51.022;6.764;2023-11-19T11:13:29;16.27;;;4.77;;
2434;SDS011;1228;51.022;6.764;2023-11-19T11:15:56;14.47;;;4.70;;
2434;SDS011;1228;51.022;6.764;2023-11-19T11:18:23;9.37;;;4.43;;
2434;SDS011;1228;51.022;6.764;2023-11-19T11:20:58;10.07;;;4.20;;
2434;SDS011;1228;51.022;6.764;2023-11-19T11:29:13;20.23;;;5.60;;
2434;SDS011;1228;51.022;6.764;2023-11-19T11:32:00;16.80;;;4.80;;
2434;SDS011;1228;51.022;6.764;2023-11-19T11:37:47;19.80;;;5.73;;
2434;SDS011;1228;51.022;6.764;2023-11-19T11:40:15;12.00;;;5.27;;
2434;SDS011;1228;51.022;6.764;2023-11-19T11:42:43;12.43;;;4.30;;
2434;SDS011;1228;51.022;6.764;2023-11-19T11:45:13;8.43;;;4.33;;
2434;SDS011;1228;51.022;6.764;2023-11-19T11:50:29;11.17;;;4.13;;
2434;SDS011;1228;51.022;6.764;2023-11-19T11:58:12;17.40;;;5.33;;
2434;SDS011;1228;51.022;6.764;2023-11-19T12:00:39;14.20;;;4.80;;
2434;SDS011;1228;51.022;6.764;2023-11-19T12:03:09;12.17;;;4.40;;
2434;SDS011;1228;51.022;6.764;2023-11-19T12:05:45;10.27;;;4.00;;
2434;SDS011;1228;51.022;6.764;2023-11-19T12:08:11;8.97;;;4.50;;
2434;SDS011;1228;51.022;6.764;2023-11-19T12:10:49;8.27;;;3.97;;
2434;SDS011;1228;51.022;6.764;2023-11-19T12:13:17;17.00;;;5.53;;
2434;SDS011;1228;51.022;6.764;2023-11-19T12:18:23;12.87;;;4.43;;
2434;SDS011;1228;51.022;6.764;2023-11-19T12:20:52;15.70;;;4.93;;
2434;SDS011;1228;51.022;6.764;2023-11-19T12:23:18;7.87;;;3.93;;
2434;SDS011;1228;51.022;6.764;2023-11-19T12:25:43;13.03;;;4.80;;
2434;SDS011;1228;51.022;6.764;2023-11-19T12:28:14;15.57;;;5.40;;
2434;SDS011;1228;51.022;6.764;2023-11-19T12:30:42;15.97;;;5.27;;
2434;SDS011;1228;51.022;6.764;2023-11-19T12:33:09;10.10;;;4.50;;
2434;SDS011;1228;51.022;6.764;2023-11-19T12:35:41;18.23;;;4.83;;
2434;SDS011;1228;51.022;6.764;2023-11-19T12:38:08;14.30;;;4.50;;
2434;SDS011;1228;51.022;6.764;2023-11-19T12:40:43;12.90;;;4.90;;
2434;SDS011;1228;51.022;6.764;2023-11-19T12:43:08;12.17;;;4.53;;
2434;SDS011;1228;51.022;6.764;2023-11-19T12:45:35;10.13;;;3.97;;
2434;SDS011;1228;51.022;6.764;2023-11-19T12:48:04;17.10;;;4.30;;
2434;SDS011;1228;51.022;6.764;2023-11-19T12:50:49;9.33;;;4.37;;
2434;SDS011;1228;51.022;6.764;2023-11-19T12:53:20;14.50;;;4.93;;
2434;SDS011;1228;51.022;6.764;2023-11-19T12:55:46;12.37;;;4.47;;
2434;SDS011;1228;51.022;6.764;2023-11-19T12:58:27;18.40;;;4.83;;
2434;SDS011;1228;51.022;6.764;2023-11-19T13:01:04;7.43;;;3.80;;
2434;SDS011;1228;51.022;6.764;2023-11-19T13:03:35;13.30;;;4.07;;
2434;SDS011;1228;51.022;6.764;2023-11-19T13:06:06;11.37;;;4.30;;
2434;SDS011;1228;51.022;6.764;2023-11-19T13:08:51;7.77;;;3.73;;
2434;SDS011;1228;51.022;6.764;2023-11-19T13:11:32;11.73;;;4.00;;
2434;SDS011;1228;51.022;6.764;2023-11-19T13:14:00;7.43;;;3.60;;
2434;SDS011;1228;51.022;6.764;2023-11-19T13:16:29;14.53;;;4.43;;
2434;SDS011;1228;51.022;6.764;2023-11-19T13:18:55;15.20;;;5.13;;
2434;SDS011;1228;51.022;6.764;2023-11-19T13:21:22;9.03;;;3.80;;
2434;SDS011;1228;51.022;6.764;2023-11-19T13:23:48;11.60;;;4.70;;
2434;SDS011;1228;51.022;6.764;2023-11-19T13:26:13;12.60;;;4.70;;
2434;SDS011;1228;51.022;6.764;2023-11-19T13:28:39;19.60;;;5.13;;
2434;SDS011;1228;51.022;6.764;2023-11-19T13:31:05;13.07;;;4.93;;
2434;SDS011;1228;51.022;6.764;2023-11-19T13:33:31;15.00;;;4.67;;
2434;SDS011;1228;51.022;6.764;2023-11-19T13:35:56;10.43;;;4.63;;
2434;SDS011;1228;51.022;6.764;2023-11-19T13:38:22;13.93;;;5.07;;
2434;SDS011;1228;51.022;6.764;2023-11-19T13:40:49;12.73;;;4.60;;
2434;SDS011;1228;51.022;6.764;2023-11-19T13:43:14;20.53;;;5.17;;
2434;SDS011;1228;51.022;6.764;2023-11-19T13:45:40;17.13;;;5.60;;
2434;SDS011;1228;51.022;6.764;2023-11-19T13:48:06;14.73;;;5.83;;
2434;SDS011;1228;51.022;6.764;2023-11-19T13:50:31;18.43;;;5.83;;
2434;SDS011;1228;51.022;6.764;2023-11-19T13:52:59;14.67;;;4.97;;
2434;SDS011;1228;51.022;6.764;2023-11-19T13:55:24;19.27;;;5.20;;
2434;SDS011;1228;51.022;6.764;2023-11-19T13:57:50;9.37;;;4.50;;
2434;SDS011;1228;51.022;6.764;2023-11-19T14:00:16;14.23;;;4.87;;
2434;SDS011;1228;51.022;6.764;2023-11-19T14:02:43;13.83;;;5.33;;
2434;SDS011;1228;51.022;6.764;2023-11-19T14:05:12;14.00;;;5.23;;
2434;SDS011;1228;51.022;6.764;2023-11-19T14:07:41;14.73;;;5.50;;
2434;SDS011;1228;51.022;6.764;2023-11-19T14:10:08;18.10;;;5.27;;
2434;SDS011;1228;51.022;6.764;2023-11-19T14:12:36;13.47;;;5.87;;
2434;SDS011;1228;51.022;6.764;2023-11-19T14:15:02;17.90;;;5.40;;
2434;SDS011;1228;51.022;6.764;2023-11-19T14:17:30;16.53;;;5.13;;
2434;SDS011;1228;51.022;6.764;2023-11-19T14:19:56;16.60;;;5.50;;
2434;SDS011;1228;51.022;6.764;2023-11-19T14:22:22;13.37;;;4.80;;
2434;SDS011;1228;51.022;6.764;2023-11-19T14:24:47;10.13;;;4.50;;
2434;SDS011;1228;51.022;6.764;2023-11-19T14:27:13;12.27;;;4.87;;
2434;SDS011;1228;51.022;6.764;2023-11-19T14:29:39;13.53;;;5.43;;
2434;SDS011;1228;51.022;6.764;2023-11-19T14:32:05;8.30;;;4.53;;
2434;SDS011;1228;51.022;6.764;2023-11-19T14:34:31;12.23;;;4.90;;
2434;SDS011;1228;51.022;6.764;2023-11-19T14:36:57;14.00;;;4.77;;
2434;SDS011;1228;51.022;6.764;2023-11-19T14:39:23;9.97;;;4.33;;
2434;SDS011;1228;51.022;6.764;2023-11-19T14:41:49;11.77;;;4.77;;
2434;SDS011;1228;51.022;6.764;2023-11-19T14:44:16;12.80;;;5.20;;
2434;SDS011;1228;51.022;6.764;2023-11-19T14:46:42;12.00;;;4.50;;
2434;SDS011;1228;51.022;6.764;2023-11-19T14:49:07;10.53;;;4.33;;
2434;SDS011;1228;51.022;6.764;2023-11-19T14:51:37;16.53;;;4.90;;
2434;SDS011;1228;51.022;6.764;2023-11-19T14:54:05;12.10;;;4.67;;
2434;SDS011;1228;51.022;6.764;2023-11-19T14:56:31;15.23;;;5.23;;
2434;SDS011;1228;51.022;6.764;2023-11-19T14:58:57;11.30;;;4.20;;
2434;SDS011;1228;51.022;6.764;2023-11-19T15:01:23;11.83;;;4.50;;
2434;SDS011;1228;51.022;6.764;2023-11-19T15:03:50;11.50;;;4.57;;
2434;SDS011;1228;51.022;6.764;2023-11-19T15:06:15;13.67;;;4.90;;
2434;SDS011;1228;51.022;6.764;2023-11-19T15:08:41;12.90;;;4.50;;
2434;SDS011;1228;51.022;6.764;2023-11-19T15:11:07;13.17;;;5.00;;
2434;SDS011;1228;51.022;6.764;2023-11-19T15:13:34;12.23;;;5.03;;
2434;SDS011;1228;51.022;6.764;2023-11-19T15:16:02;17.13;;;5.70;;
2434;SDS011;1228;51.022;6.764;2023-11-19T15:18:30;19.87;;;5.07;;
2434;SDS011;1228;51.022;6.764;2023-11-19T15:20:56;15.40;;;6.07;;
2434;SDS011;1228;51.022;6.764;2023-11-19T15:23:22;18.27;;;5.67;;